Time;durP1;ratioP1;P1;durP2;ratioP2;P2;SDS_P1;SDS_P2;PMS_P1;PMS_P2;Temp;Humidity;BMP_temperature;BMP_pressure;BME280_temperature;BME280_humidity;BME280_pressure;Samples;Min_cycle;Max_cycle;Signal;HPM_P1;HPM_P2
2023/10/12 00:00:29;;;;;;;12.50;5.57;;;;;;;12.97;100.00;98187.19;2574146;28;20050;-93
2023/10/12 00:02:08;;;;;;;11.57;5.35;;;;;;;13.01;100.00;98188.78;2574937;28;20046;-92
2023/10/12 00:03:25;;;;;;;9.25;4.88;;;;;;;12.90;100.00;98188.38;2585082;28;20054;-93
2023/10/12 00:04:43;;;;;;;10.55;5.28;;;;;;;12.90;100.00;98185.75;2575560;28;20058;-92
2023/10/12 00:05:59;;;;;;;13.00;5.93;;;;;;;12.99;100.00;98180.06;2578256;28;20502;-93
2023/10/12 00:07:25;;;;;;;12.45;5.63;;;;;;;12.60;100.00;98188.72;2577961;28;20054;-92
2023/10/12 00:08:41;;;;;;;12.20;6.53;;;;;;;12.80;100.00;98182.66;2573187;28;20561;-93
2023/10/12 00:11:37;;;;;;;12.70;5.45;;;;;;;12.51;100.00;98182.91;2584488;28;20041;-92
2023/10/12 00:12:59;;;;;;;12.82;5.35;;;;;;;12.96;100.00;98180.22;2588098;28;20046;-92
2023/10/12 00:14:14;;;;;;;13.05;5.47;;;;;;;12.95;100.00;98173.25;2577526;28;20500;-92
2023/10/12 00:15:37;;;;;;;10.50;5.20;;;;;;;13.00;100.00;98180.03;2576076;28;20050;-94
2023/10/12 00:16:53;;;;;;;11.23;5.32;;;;;;;12.67;100.00;98183.16;2578566;28;20058;-93
2023/10/12 00:18:08;;;;;;;11.35;5.38;;;;;;;12.81;100.00;98168.59;2587754;28;20066;-93
2023/10/12 00:19:25;;;;;;;13.45;5.85;;;;;;;12.80;100.00;98172.97;2581653;28;20607;-93
2023/10/12 00:20:44;;;;;;;13.77;5.60;;;;;;;12.68;100.00;98169.09;2591356;28;20046;-93
2023/10/12 00:22:00;;;;;;;8.45;5.35;;;;;;;12.64;100.00;98167.53;2588016;28;20034;-92
2023/10/12 00:23:15;;;;;;;11.80;5.35;;;;;;;12.70;100.00;98177.75;2589444;28;20042;-92
2023/10/12 00:24:31;;;;;;;9.93;5.25;;;;;;;12.78;100.00;98166.06;2572440;28;20062;-92
2023/10/12 00:25:54;;;;;;;11.15;5.35;;;;;;;12.78;100.00;98169.56;2576883;28;20066;-92
2023/10/12 00:27:14;;;;;;;11.40;5.50;;;;;;;12.82;100.00;98165.88;2587123;28;20050;-92
2023/10/12 00:28:38;;;;;;;13.20;4.97;;;;;;;12.74;100.00;98165.38;2573023;28;20110;-92
2023/10/12 00:29:54;;;;;;;10.80;5.03;;;;;;;12.81;100.00;98160.72;2582770;28;20167;-92
2023/10/12 00:31:18;;;;;;;11.75;5.10;;;;;;;12.90;100.00;98159.47;2578305;28;20051;-92
2023/10/12 00:32:34;;;;;;;10.15;5.40;;;;;;;12.89;100.00;98157.75;2578851;28;20093;-93
2023/10/12 00:33:49;;;;;;;10.73;4.80;;;;;;;12.81;100.00;98156.28;2578076;28;20042;-93
2023/10/12 00:35:07;;;;;;;11.90;5.43;;;;;;;12.89;100.00;98152.50;2572508;28;20085;-94
2023/10/12 00:36:24;;;;;;;11.40;5.30;;;;;;;12.94;100.00;98164.53;2570321;28;20053;-93
2023/10/12 00:37:41;;;;;;;8.38;4.63;;;;;;;12.89;100.00;98155.13;2565945;28;20110;-92
2023/10/12 00:38:56;;;;;;;13.93;5.15;;;;;;;12.87;100.00;98157.81;2577818;28;20050;-92
2023/10/12 00:40:23;;;;;;;13.90;5.55;;;;;;;12.83;100.00;98151.81;2580296;28;20052;-93
2023/10/12 00:41:45;;;;;;;10.00;5.05;;;;;;;12.78;100.00;98152.94;2581692;28;20050;-93
2023/10/12 00:43:01;;;;;;;9.52;5.20;;;;;;;12.77;100.00;98146.84;2574377;28;20997;-93
2023/10/12 00:44:18;;;;;;;7.55;4.85;;;;;;;12.82;100.00;98149.28;2580156;28;20046;-93
2023/10/12 00:45:34;;;;;;;11.55;4.90;;;;;;;12.80;100.00;98143.25;2580883;28;20077;-93
2023/10/12 00:47:06;;;;;;;11.15;5.05;;;;;;;12.77;100.00;98144.22;2579603;28;20206;-93
2023/10/12 00:48:29;;;;;;;10.52;4.80;;;;;;;12.80;100.00;98133.56;2580122;28;20437;-93
2023/10/12 00:49:48;;;;;;;10.93;5.53;;;;;;;12.75;100.00;98135.56;2584529;28;20433;-92
2023/10/12 00:51:10;;;;;;;10.02;4.95;;;;;;;12.74;100.00;98133.84;2569175;28;20047;-94
2023/10/12 00:52:35;;;;;;;8.35;5.20;;;;;;;12.59;100.00;98135.31;2566843;28;20056;-92
2023/10/12 00:53:56;;;;;;;8.60;4.85;;;;;;;12.65;100.00;98132.47;2579718;28;20042;-94
2023/10/12 00:55:21;;;;;;;11.32;5.38;;;;;;;12.71;100.00;98136.56;2579300;28;20395;-93
2023/10/12 00:56:43;;;;;;;9.98;4.95;;;;;;;12.75;100.00;98132.06;2574572;28;20096;-92
2023/10/12 00:57:58;;;;;;;10.18;4.50;;;;;;;12.67;100.00;98128.00;2574196;28;20046;-93
2023/10/12 00:59:15;;;;;;;9.90;4.55;;;;;;;12.79;100.00;98133.66;2573620;28;20046;-94
2023/10/12 01:00:35;;;;;;;7.55;4.53;;;;;;;12.83;100.00;98129.97;2579442;28;20042;-93
2023/10/12 01:01:53;;;;;;;8.07;4.57;;;;;;;12.87;100.00;98128.91;2575079;28;20429;-92
2023/10/12 01:04:48;;;;;;;10.25;5.28;;;;;;;12.83;100.00;98117.66;2575592;28;20089;-92
2023/10/12 01:07:27;;;;;;;10.15;5.72;;;;;;;12.74;100.00;98122.47;2591570;28;20096;-93
2023/10/12 01:08:43;;;;;;;8.85;4.88;;;;;;;12.66;100.00;98121.03;2589945;28;20140;-93
2023/10/12 01:10:10;;;;;;;8.48;4.55;;;;;;;12.73;100.00;98113.75;2568591;28;20049;-92
2023/10/12 01:11:26;;;;;;;8.20;4.28;;;;;;;12.64;100.00;98116.75;2567766;28;20084;-92
2023/10/12 01:12:45;;;;;;;10.35;4.35;;;;;;;12.70;100.00;98108.59;2570920;28;20521;-92
2023/10/12 01:15:19;;;;;;;10.27;4.80;;;;;;;12.61;100.00;98116.88;2583497;28;20129;-92
2023/10/12 01:16:55;;;;;;;7.47;4.13;;;;;;;12.62;100.00;98113.34;2579317;28;20121;-92
2023/10/12 01:18:12;;;;;;;8.85;4.40;;;;;;;12.54;100.00;98114.50;2586613;28;20041;-93
2023/10/12 01:19:31;;;;;;;8.35;4.00;;;;;;;12.63;100.00;98115.88;2589621;28;20038;-93
2023/10/12 01:20:49;;;;;;;7.68;4.00;;;;;;;12.39;100.00;98104.63;2573172;28;20038;-93
2023/10/12 01:22:13;;;;;;;9.50;4.43;;;;;;;12.25;100.00;98120.94;2584074;28;20054;-92
2023/10/12 01:23:30;;;;;;;9.43;4.72;;;;;;;12.21;100.00;98114.09;2578854;28;20189;-93
2023/10/12 01:26:10;;;;;;;11.57;4.85;;;;;;;12.17;100.00;98118.63;2584315;28;20129;-93
2023/10/12 01:27:44;;;;;;;10.93;4.75;;;;;;;12.42;100.00;98107.13;2590689;28;20060;-93
2023/10/12 01:29:00;;;;;;;10.07;4.65;;;;;;;12.50;100.00;98099.78;2578140;28;20120;-93
2023/10/12 01:30:27;;;;;;;9.95;4.95;;;;;;;12.54;100.00;98106.63;2573457;28;20042;-92
2023/10/12 01:31:51;;;;;;;12.63;5.53;;;;;;;12.63;100.00;98102.75;2579095;28;20521;-93
2023/10/12 01:33:07;;;;;;;8.45;4.85;;;;;;;12.71;100.00;98108.56;2579436;28;20093;-93
2023/10/12 01:34:24;;;;;;;12.48;4.85;;;;;;;12.70;100.00;98098.09;2572965;28;20062;-92
2023/10/12 01:35:48;;;;;;;9.63;4.68;;;;;;;12.70;100.00;98100.72;2573590;28;20129;-93
2023/10/12 01:37:11;;;;;;;7.78;4.05;;;;;;;12.77;100.00;98096.06;2573885;28;20054;-93
2023/10/12 01:38:37;;;;;;;;;;;;;;;12.79;100.00;98097.72;2576858;28;20046;-93
2023/10/12 01:39:57;;;;;;;8.15;4.43;;;;;;;12.85;100.00;98092.22;2574533;28;19984;-93
2023/10/12 01:41:24;;;;;;;9.55;4.32;;;;;;;12.95;100.00;98091.78;2579982;28;20785;-94
2023/10/12 01:43:56;;;;;;;14.18;5.38;;;;;;;12.87;100.00;98101.81;2583955;28;20038;-92
2023/10/12 01:45:19;;;;;;;13.32;4.93;;;;;;;12.89;100.00;98094.72;2578946;28;20497;-92
2023/10/12 01:46:35;;;;;;;9.95;5.18;;;;;;;12.82;100.00;98102.81;2579423;28;20116;-92
2023/10/12 01:47:56;;;;;;;10.20;4.28;;;;;;;12.40;100.00;98087.97;2578763;28;20074;-91
2023/10/12 01:49:12;;;;;;;8.48;4.90;;;;;;;12.24;100.00;98095.63;2583106;28;20233;-92
2023/10/12 01:50:28;;;;;;;12.10;5.22;;;;;;;12.38;100.00;98092.41;2578154;28;20108;-92
2023/10/12 01:51:46;;;;;;;8.82;4.90;;;;;;;12.45;100.00;98093.88;2579058;28;20101;-93
2023/10/12 01:53:06;;;;;;;11.15;4.97;;;;;;;12.46;100.00;98095.59;2573006;28;21067;-94
2023/10/12 01:54:22;;;;;;;11.00;4.80;;;;;;;12.49;100.00;98095.47;2570759;28;20086;-93
2023/10/12 01:55:37;;;;;;;9.98;5.00;;;;;;;12.63;100.00;98099.28;2577416;28;20497;-92
2023/10/12 01:56:55;;;;;;;9.60;4.63;;;;;;;12.62;100.00;98089.69;2573464;28;20096;-93
2023/10/12 01:58:12;;;;;;;10.77;4.70;;;;;;;12.65;100.00;98092.19;2568195;28;20066;-93
2023/10/12 01:59:27;;;;;;;10.75;6.40;;;;;;;12.50;100.00;98093.66;2582393;28;20481;-93
2023/10/12 02:00:51;;;;;;;12.00;5.55;;;;;;;12.59;100.00;98097.72;2589126;28;20074;-92
2023/10/12 02:02:08;;;;;;;15.13;5.65;;;;;;;12.55;100.00;98082.06;2578949;28;20046;-93
2023/10/12 02:03:31;;;;;;;10.75;4.95;;;;;;;12.59;100.00;98095.09;2570837;28;20046;-93
2023/10/12 02:04:48;;;;;;;13.13;4.82;;;;;;;12.66;100.00;98093.91;2571184;28;20585;-92
2023/10/12 02:06:13;;;;;;;9.98;4.75;;;;;;;12.73;100.00;98089.25;2572370;28;20070;-92
2023/10/12 02:07:29;;;;;;;8.90;4.10;;;;;;;12.34;100.00;98086.44;2574163;28;20049;-93
2023/10/12 02:10:00;;;;;;;9.85;4.47;;;;;;;12.35;100.00;98093.38;2589202;28;20045;-93
2023/10/12 02:12:31;;;;;;;14.18;4.70;;;;;;;12.48;100.00;98088.50;2583355;28;20049;-92
2023/10/12 02:13:47;;;;;;;14.25;4.93;;;;;;;12.55;100.00;98087.31;2588431;28;20045;-93
2023/10/12 02:15:04;;;;;;;10.65;5.75;;;;;;;12.78;100.00;98096.00;2578468;28;20514;-92
2023/10/12 02:16:38;;;;;;;8.00;4.32;;;;;;;12.78;100.00;98085.50;2578878;28;20034;-94
2023/10/12 02:17:58;;;;;;;13.93;5.47;;;;;;;12.73;100.00;98092.72;2578943;28;20049;-92
2023/10/12 02:19:19;;;;;;;11.52;6.00;;;;;;;12.84;100.00;98092.28;2582843;28;20911;-92
2023/10/12 02:20:42;;;;;;;10.35;4.63;;;;;;;12.88;100.00;98093.00;2574334;28;20097;-93
2023/10/12 02:22:01;;;;;;;8.10;4.55;;;;;;;12.68;100.00;98103.44;2580488;28;20524;-93
2023/10/12 02:23:16;;;;;;;12.23;5.00;;;;;;;12.70;100.00;98100.72;2569237;28;20047;-93
2023/10/12 02:24:35;;;;;;;10.95;5.07;;;;;;;12.66;100.00;98110.53;2572355;28;20047;-93
2023/10/12 02:25:50;;;;;;;10.10;5.28;;;;;;;12.59;100.00;98105.59;2573765;28;20046;-93
2023/10/12 02:27:06;;;;;;;13.18;6.32;;;;;;;12.39;100.00;98109.88;2582731;28;20501;-92
2023/10/12 02:28:22;;;;;;;14.65;5.22;;;;;;;12.58;100.00;98102.09;2578756;28;20081;-92
2023/10/12 02:29:39;;;;;;;11.57;5.38;;;;;;;12.65;100.00;98103.56;2578792;28;20539;-93
2023/10/12 02:30:54;;;;;;;11.38;4.53;;;;;;;12.59;100.00;98109.06;2578539;28;20895;-92
2023/10/12 02:32:18;;;;;;;9.45;5.07;;;;;;;12.47;100.00;98113.06;2580897;28;20093;-91
2023/10/12 02:33:37;;;;;;;9.07;4.90;;;;;;;12.49;100.00;98111.22;2581472;28;20049;-92
2023/10/12 02:34:57;;;;;;;12.52;4.97;;;;;;;12.36;100.00;98107.38;2574366;28;20112;-93
2023/10/12 02:36:13;;;;;;;10.18;5.28;;;;;;;12.47;100.00;98105.19;2572260;28;20046;-94
2023/10/12 02:37:28;;;;;;;17.88;5.35;;;;;;;12.48;100.00;98096.38;2579567;28;20046;-93
2023/10/12 02:38:44;;;;;;;10.13;4.75;;;;;;;12.53;100.00;98110.16;2582604;28;20551;-92
2023/10/12 02:40:00;;;;;;;10.73;5.00;;;;;;;12.23;100.00;98104.41;2578783;28;20592;-92
2023/10/12 02:41:15;;;;;;;9.00;4.68;;;;;;;12.13;100.00;98102.16;2572857;28;20525;-93
2023/10/12 02:42:41;;;;;;;12.35;4.85;;;;;;;12.27;100.00;98103.38;2579023;28;20046;-93
2023/10/12 02:44:11;;;;;;;10.13;4.82;;;;;;;12.33;100.00;98100.47;2571307;28;20042;-92
2023/10/12 02:45:33;;;;;;;10.57;4.90;;;;;;;12.28;100.00;98107.69;2570563;28;20078;-94
2023/10/12 02:47:12;;;;;;;9.52;4.75;;;;;;;12.37;100.00;98109.97;2573603;28;20046;-94
2023/10/12 02:48:29;;;;;;;12.88;5.43;;;;;;;12.28;100.00;98103.28;2575825;28;20050;-93
2023/10/12 02:49:46;;;;;;;11.98;4.82;;;;;;;12.34;100.00;98106.59;2573318;28;20540;-93
2023/10/12 02:51:06;;;;;;;14.27;4.95;;;;;;;12.36;100.00;98110.00;2578386;28;20046;-93
2023/10/12 02:52:22;;;;;;;12.50;4.78;;;;;;;12.36;100.00;98102.13;2573361;28;20058;-93
2023/10/12 02:53:39;;;;;;;12.15;5.00;;;;;;;12.47;100.00;98102.56;2572319;28;20038;-93
2023/10/12 02:54:56;;;;;;;12.82;5.88;;;;;;;12.45;100.00;98101.78;2583688;28;20054;-94
2023/10/12 02:56:11;;;;;;;11.13;4.82;;;;;;;12.57;100.00;98106.50;2578482;28;20057;-94
2023/10/12 02:57:31;;;;;;;17.95;4.95;;;;;;;12.29;100.00;98106.78;2578683;28;20553;-93
2023/10/12 02:58:46;;;;;;;12.45;4.50;;;;;;;12.29;100.00;98107.66;2570502;28;20133;-92
2023/10/12 03:00:12;;;;;;;9.48;4.45;;;;;;;12.41;100.00;98097.53;2570325;28;20046;-93
2023/10/12 03:01:29;;;;;;;10.80;4.55;;;;;;;12.45;100.00;98100.91;2580787;28;20080;-91
2023/10/12 03:02:52;;;;;;;11.00;4.80;;;;;;;12.35;100.00;98103.88;2563359;28;20058;-93
2023/10/12 03:04:11;;;;;;;9.18;4.20;;;;;;;12.26;100.00;98102.50;2578314;28;20049;-93
2023/10/12 03:05:44;;;;;;;9.73;4.60;;;;;;;12.04;100.00;98101.66;2572481;28;20051;-93
2023/10/12 03:07:13;;;;;;;7.10;4.07;;;;;;;12.10;100.00;98090.91;2582360;28;20053;-93
2023/10/12 03:08:33;;;;;;;9.40;4.70;;;;;;;12.06;100.00;98091.97;2576701;28;20050;-93
2023/10/12 03:09:58;;;;;;;10.73;4.63;;;;;;;11.57;100.00;98093.75;2583007;28;20050;-93
2023/10/12 03:11:15;;;;;;;11.10;5.30;;;;;;;11.69;100.00;98092.44;2578933;28;20172;-93
2023/10/12 03:12:35;;;;;;;9.27;4.93;;;;;;;11.93;100.00;98088.91;2570009;28;20078;-93
2023/10/12 03:15:46;;;;;;;10.88;4.80;;;;;;;12.04;100.00;98092.00;2584815;28;20433;-93
2023/10/12 03:17:09;;;;;;;9.52;4.80;;;;;;;12.12;100.00;98082.06;2578678;28;20074;-92
2023/10/12 03:18:27;;;;;;;8.68;5.05;;;;;;;12.11;100.00;98090.88;2583272;28;20046;-92
2023/10/12 03:19:55;;;;;;;11.77;4.78;;;;;;;12.12;100.00;98081.19;2588663;28;20045;-93
2023/10/12 03:21:11;;;;;;;11.38;4.60;;;;;;;12.15;100.00;98091.56;2578070;28;20070;-93
2023/10/12 03:22:34;;;;;;;11.98;4.82;;;;;;;12.18;100.00;98082.72;2572938;28;20057;-92
2023/10/12 03:23:50;;;;;;;12.43;5.15;;;;;;;12.26;100.00;98078.88;2582722;28;20311;-93
2023/10/12 03:25:19;;;;;;;10.40;4.32;;;;;;;12.16;100.00;98069.69;2578693;28;20057;-92
2023/10/12 03:26:35;;;;;;;10.57;4.68;;;;;;;12.07;100.00;98070.88;2573884;28;20049;-93
2023/10/12 03:27:53;;;;;;;10.20;4.68;;;;;;;12.28;100.00;98077.03;2572051;28;20050;-93
2023/10/12 03:30:43;;;;;;;8.90;4.70;;;;;;;11.91;100.00;98081.13;2583573;28;20073;-93
2023/10/12 03:32:00;;;;;;;8.88;4.95;;;;;;;12.00;100.00;98079.91;2578474;28;20073;-92
2023/10/12 03:33:16;;;;;;;10.70;4.72;;;;;;;11.85;100.00;98076.09;2581790;28;20434;-94
2023/10/12 03:36:02;;;;;;;11.65;4.85;;;;;;;11.90;100.00;98066.31;2583105;28;20041;-92
2023/10/12 03:37:18;;;;;;;9.90;4.40;;;;;;;11.95;100.00;98071.38;2562017;28;20540;-93
2023/10/12 03:38:35;;;;;;;10.48;4.15;;;;;;;11.87;100.00;98072.50;2563021;28;20054;-93
2023/10/12 03:42:42;;;;;;;11.90;4.65;;;;;;;12.06;100.00;98069.19;2589234;28;20096;-93
2023/10/12 03:44:09;;;;;;;10.27;4.57;;;;;;;11.95;100.00;98069.59;2577586;28;20046;-92
2023/10/12 03:45:33;;;;;;;11.35;4.97;;;;;;;12.00;100.00;98059.75;2581137;28;20046;-93
2023/10/12 03:47:04;;;;;;;10.88;4.40;;;;;;;12.00;100.00;98056.28;2573816;28;20051;-94
2023/10/12 03:48:25;;;;;;;9.25;4.38;;;;;;;11.92;100.00;98061.84;2583942;28;20042;-93
2023/10/12 03:52:34;;;;;;;11.02;5.32;;;;;;;11.91;100.00;98077.63;2589010;28;20061;-94
2023/10/12 03:53:56;;;;;;;9.23;4.80;;;;;;;12.03;100.00;98073.72;2577959;28;20054;-93
2023/10/12 03:55:33;;;;;;;12.07;4.80;;;;;;;11.93;100.00;98070.56;2578974;28;20741;-93
2023/10/12 03:56:48;;;;;;;10.57;4.88;;;;;;;11.72;100.00;98078.34;2585780;28;20050;-94
2023/10/12 03:58:06;;;;;;;9.02;4.70;;;;;;;11.80;100.00;98076.28;2578542;28;20050;-94
2023/10/12 03:59:31;;;;;;;13.18;5.00;;;;;;;11.80;100.00;98072.81;2579246;28;20056;-93
2023/10/12 04:01:06;;;;;;;11.65;5.55;;;;;;;11.87;100.00;98071.66;2578200;28;20046;-92
2023/10/12 04:02:24;;;;;;;12.95;5.57;;;;;;;11.97;100.00;98067.75;2575044;28;20049;-92
2023/10/12 04:03:42;;;;;;;11.60;5.18;;;;;;;11.90;100.00;98073.31;2576726;28;20068;-92
2023/10/12 04:05:15;;;;;;;11.40;5.20;;;;;;;11.85;100.00;98070.84;2566433;28;20055;-94
2023/10/12 04:06:46;;;;;;;12.90;5.32;;;;;;;11.85;100.00;98070.84;2572124;28;21042;-94
2023/10/12 04:09:31;;;;;;;10.75;4.97;;;;;;;11.48;100.00;98078.38;2578737;28;20045;-93
2023/10/12 04:14:51;;;;;;;9.68;4.80;;;;;;;11.73;100.00;98082.69;2590788;28;20106;-94
2023/10/12 04:16:27;;;;;;;10.77;5.13;;;;;;;11.62;100.00;98082.25;2579957;28;20090;-92
2023/10/12 04:17:48;;;;;;;8.07;4.75;;;;;;;11.68;100.00;98077.63;2586844;28;20077;-92
2023/10/12 04:19:03;;;;;;;13.23;5.30;;;;;;;11.50;100.00;98070.47;2588993;28;20077;-92
2023/10/12 04:20:22;;;;;;;9.05;5.10;;;;;;;11.62;100.00;98080.47;2579901;28;20069;-91
2023/10/12 04:21:40;;;;;;;13.45;5.43;;;;;;;11.44;100.00;98077.63;2579538;28;20042;-92
2023/10/12 04:23:36;;;;;;;11.95;4.75;;;;;;;11.74;100.00;98071.28;2581085;28;20046;-92
2023/10/12 04:24:42;;;;;;;10.63;5.07;;;;;;;11.96;100.00;98083.56;2585769;28;20050;-92
2023/10/12 04:28:54;;;;;;;10.80;4.88;;;;;;;12.00;100.00;98080.75;2595456;28;20505;-91
2023/10/12 04:30:20;;;;;;;10.55;5.68;;;;;;;12.14;100.00;98080.22;2587325;28;20055;-91
2023/10/12 04:31:56;;;;;;;11.55;5.07;;;;;;;11.95;100.00;98085.31;2593358;28;20041;-92
2023/10/12 04:33:14;;;;;;;11.48;5.03;;;;;;;12.13;100.00;98089.03;2588134;28;20433;-92
2023/10/12 04:34:34;;;;;;;10.18;5.63;;;;;;;12.18;100.00;98087.97;2592653;28;20121;-93
2023/10/12 04:37:10;;;;;;;11.20;4.60;;;;;;;12.10;100.00;98085.66;2590208;28;20054;-92
2023/10/12 04:38:45;;;;;;;10.85;5.47;;;;;;;12.06;100.00;98084.09;2579506;28;20042;-92
2023/10/12 04:40:10;;;;;;;13.35;5.28;;;;;;;12.14;100.00;98089.88;2578303;28;20030;-91
2023/10/12 04:41:42;;;;;;;9.73;4.90;;;;;;;12.19;100.00;98087.94;2579095;28;20057;-91
2023/10/12 04:43:05;;;;;;;11.73;5.60;;;;;;;12.26;100.00;98091.16;2579443;28;20078;-92
2023/10/12 04:47:19;;;;;;;7.97;4.82;;;;;;;12.19;100.00;98093.19;2590568;28;20060;-92
2023/10/12 04:48:41;;;;;;;13.57;5.65;;;;;;;11.96;100.00;98100.16;2579706;28;20073;-92
2023/10/12 04:49:59;;;;;;;9.65;5.05;;;;;;;11.89;100.00;98097.81;2584111;28;20379;-91
2023/10/12 04:51:21;;;;;;;9.57;4.60;;;;;;;11.91;100.00;98093.38;2578254;28;20395;-91
2023/10/12 04:52:38;;;;;;;14.52;4.90;;;;;;;11.86;100.00;98098.78;2573853;28;20053;-91
2023/10/12 04:54:17;;;;;;;11.45;4.85;;;;;;;11.92;100.00;98106.44;2571657;28;20046;-92
2023/10/12 04:55:34;;;;;;;12.27;5.07;;;;;;;12.02;100.00;98106.13;2575629;28;20101;-94
2023/10/12 04:56:57;;;;;;;9.65;4.70;;;;;;;11.99;100.00;98102.66;2578783;28;20564;-92
2023/10/12 05:01:15;;;;;;;11.90;5.32;;;;;;;11.94;100.00;98106.34;2589041;28;20132;-92
2023/10/12 05:02:42;;;;;;;11.43;4.63;;;;;;;11.71;100.00;98105.50;2578626;28;20788;-92
2023/10/12 05:04:19;;;;;;;10.23;4.50;;;;;;;11.81;100.00;98113.88;2583870;28;20077;-92
2023/10/12 05:08:34;;;;;;;14.85;5.30;;;;;;;11.83;100.00;98107.66;2589586;28;20417;-91
2023/10/12 05:09:49;;;;;;;11.13;4.95;;;;;;;11.93;100.00;98112.53;2588454;28;20045;-90
2023/10/12 05:11:06;;;;;;;10.50;4.80;;;;;;;11.99;100.00;98114.94;2588790;28;20041;-92
2023/10/12 05:12:23;;;;;;;7.85;4.57;;;;;;;11.95;100.00;98119.44;2588633;28;20612;-92
2023/10/12 05:13:43;;;;;;;11.95;4.80;;;;;;;12.03;100.00;98113.06;2588804;28;20115;-92
2023/10/12 05:15:01;;;;;;;9.43;4.10;;;;;;;12.04;100.00;98114.78;2587584;28;20084;-92
2023/10/12 05:16:16;;;;;;;13.27;5.13;;;;;;;11.87;100.00;98117.09;2577535;28;20514;-95
2023/10/12 05:17:32;;;;;;;9.30;5.55;;;;;;;12.01;100.00;98120.97;2578155;28;20379;-93
2023/10/12 05:18:47;;;;;;;10.27;4.85;;;;;;;11.96;100.00;98121.13;2573454;28;20832;-93
2023/10/12 05:20:04;;;;;;;13.40;5.53;;;;;;;11.96;100.00;98118.50;2578918;28;20512;-93
2023/10/12 05:21:19;;;;;;;9.80;5.43;;;;;;;12.04;100.00;98117.41;2573363;28;20080;-94
2023/10/12 05:22:35;;;;;;;8.45;5.22;;;;;;;12.18;100.00;98127.34;2567038;28;20049;-94
2023/10/12 05:23:50;;;;;;;11.73;6.20;;;;;;;12.14;100.00;98126.59;2578011;28;20061;-92
2023/10/12 05:25:07;;;;;;;10.88;4.82;;;;;;;12.35;100.00;98121.44;2578979;28;20150;-93
2023/10/12 05:26:25;;;;;;;13.63;5.10;;;;;;;12.20;100.00;98125.50;2570729;28;20042;-93
2023/10/12 05:28:04;;;;;;;10.20;5.18;;;;;;;12.11;100.00;98124.97;2583534;28;20045;-93
2023/10/12 05:30:37;;;;;;;14.02;5.82;;;;;;;12.18;100.00;98133.47;2589445;28;20528;-94
2023/10/12 05:32:05;;;;;;;10.38;5.53;;;;;;;11.93;100.00;98129.13;2579750;28;20079;-93
2023/10/12 05:33:37;;;;;;;8.00;4.30;;;;;;;12.00;100.00;98127.97;2580202;28;20163;-93
2023/10/12 05:34:53;;;;;;;11.38;5.07;;;;;;;12.06;100.00;98128.69;2585181;28;20053;-92
2023/10/12 05:36:28;;;;;;;13.48;4.60;;;;;;;12.15;100.00;98126.56;2579176;28;20050;-94
2023/10/12 05:37:49;;;;;;;12.82;5.10;;;;;;;12.05;100.00;98122.56;2566046;28;20054;-92
2023/10/12 05:39:13;;;;;;;11.13;4.78;;;;;;;12.11;100.00;98130.22;2569975;28;20129;-93
2023/10/12 05:40:35;;;;;;;11.07;4.97;;;;;;;12.25;100.00;98127.03;2574859;28;20560;-93
2023/10/12 05:41:56;;;;;;;10.98;5.22;;;;;;;12.41;100.00;98126.41;2563608;28;20047;-93
2023/10/12 05:43:21;;;;;;;13.02;5.13;;;;;;;12.38;100.00;98121.28;2568837;28;20982;-94
2023/10/12 05:44:42;;;;;;;12.93;5.00;;;;;;;12.56;100.00;98128.41;2584604;28;20042;-94
2023/10/12 05:46:03;;;;;;;9.88;4.72;;;;;;;12.56;100.00;98131.03;2589650;28;20300;-94
2023/10/12 05:47:29;;;;;;;10.18;4.93;;;;;;;12.65;100.00;98134.22;2564242;28;20082;-94
2023/10/12 05:48:51;;;;;;;8.45;4.55;;;;;;;12.72;100.00;98138.31;2578924;28;20053;-94
2023/10/12 05:50:09;;;;;;;9.10;4.55;;;;;;;12.70;100.00;98137.50;2583621;28;20053;-94
2023/10/12 05:51:25;;;;;;;13.32;5.05;;;;;;;12.81;100.00;98135.28;2576520;28;20061;-93
2023/10/12 05:52:40;;;;;;;8.75;4.57;;;;;;;12.96;100.00;98130.28;2580205;28;20047;-94
2023/10/12 05:54:01;;;;;;;10.65;4.85;;;;;;;13.02;100.00;98140.56;2579606;28;20137;-94
2023/10/12 05:55:22;;;;;;;8.95;4.40;;;;;;;12.97;100.00;98151.25;2584169;28;20073;-93
2023/10/12 05:56:39;;;;;;;14.43;5.40;;;;;;;13.18;100.00;98153.88;2579363;28;20084;-93
2023/10/12 05:58:05;;;;;;;11.90;5.32;;;;;;;13.28;100.00;98149.09;2579438;28;20061;-94
2023/10/12 05:59:22;;;;;;;9.05;4.85;;;;;;;13.24;100.00;98151.00;2579108;28;20458;-95
2023/10/12 06:00:45;;;;;;;10.95;4.68;;;;;;;13.20;100.00;98156.44;2573277;28;20129;-95
2023/10/12 06:02:01;;;;;;;8.55;5.63;;;;;;;13.26;100.00;98153.53;2569857;28;20042;-93
2023/10/12 06:03:20;;;;;;;9.70;4.82;;;;;;;13.02;100.00;98168.59;2580173;28;20054;-94
2023/10/12 06:04:36;;;;;;;14.52;5.40;;;;;;;13.13;100.00;98163.75;2575480;28;20093;-95
2023/10/12 06:05:52;;;;;;;9.13;4.82;;;;;;;13.20;100.00;98167.81;2572999;28;20042;-95
2023/10/12 06:07:08;;;;;;;7.40;4.72;;;;;;;13.15;100.00;98159.28;2569136;28;20581;-94
2023/10/12 06:08:26;;;;;;;10.18;5.13;;;;;;;13.13;100.00;98167.25;2570342;28;20051;-94
2023/10/12 06:09:42;;;;;;;9.68;4.20;;;;;;;13.08;100.00;98158.69;2559861;28;20054;-93
2023/10/12 06:10:58;;;;;;;15.57;5.93;;;;;;;13.02;100.00;98161.59;2567144;28;20166;-94
2023/10/12 06:12:18;;;;;;;9.23;5.25;;;;;;;13.11;100.00;98153.28;2571140;28;20498;-94
2023/10/12 06:13:44;;;;;;;10.15;4.78;;;;;;;13.08;100.00;98152.59;2582516;28;20593;-95
2023/10/12 06:15:00;;;;;;;12.27;5.00;;;;;;;13.18;100.00;98147.78;2578097;28;20181;-93
2023/10/12 06:16:17;;;;;;;9.95;4.70;;;;;;;13.24;100.00;98158.00;2578405;28;20050;-94
2023/10/12 06:17:39;;;;;;;9.05;4.75;;;;;;;13.25;100.00;98155.31;2579019;28;20575;-94
2023/10/12 06:18:55;;;;;;;8.32;5.00;;;;;;;13.25;100.00;98160.59;2572625;28;20051;-93
2023/10/12 06:20:12;;;;;;;9.10;4.60;;;;;;;13.36;100.00;98159.28;2572391;28;20057;-94
2023/10/12 06:21:29;;;;;;;11.52;4.93;;;;;;;13.50;100.00;98161.31;2578550;28;20074;-94
2023/10/12 06:22:47;;;;;;;11.93;4.22;;;;;;;13.52;100.00;98159.47;2579220;28;20050;-94
2023/10/12 06:24:05;;;;;;;11.75;4.78;;;;;;;13.56;100.00;98163.69;2573465;28;20085;-95
2023/10/12 06:25:21;;;;;;;11.45;4.40;;;;;;;13.63;100.00;98159.00;2579884;28;20126;-95
2023/10/12 06:26:38;;;;;;;11.18;4.75;;;;;;;13.67;100.00;98157.94;2583120;28;20092;-94
2023/10/12 06:27:54;;;;;;;12.70;4.20;;;;;;;13.78;100.00;98160.06;2578773;28;20081;-95
2023/10/12 06:29:11;;;;;;;8.55;3.92;;;;;;;13.81;100.00;98163.41;2572682;28;20062;-93
2023/10/12 06:30:28;;;;;;;9.48;4.22;;;;;;;13.91;100.00;98158.56;2571056;28;20118;-94
2023/10/12 06:31:51;;;;;;;12.70;4.07;;;;;;;14.11;100.00;98164.72;2577574;28;20114;-94
2023/10/12 06:33:12;;;;;;;9.00;4.20;;;;;;;14.81;100.00;98167.53;2573543;28;20042;-93
2023/10/12 06:34:29;;;;;;;8.43;4.35;;;;;;;15.35;100.00;98163.06;2581940;28;20119;-94
2023/10/12 06:37:49;;;;;;;6.40;3.50;;;;;;;15.98;100.00;98165.97;2562843;28;20058;-94
2023/10/12 06:44:33;;;;;;;7.68;3.88;;;;;;;16.79;100.00;98183.44;2589329;28;20050;-94
2023/10/12 06:45:51;;;;;;;7.53;3.72;;;;;;;16.93;100.00;98194.09;2588260;28;20089;-94
2023/10/12 06:47:31;;;;;;;10.00;3.78;;;;;;;17.10;100.00;98196.72;2578156;28;20054;-94
2023/10/12 06:48:47;;;;;;;10.13;3.40;;;;;;;17.20;100.00;98196.09;2574853;28;20581;-94
2023/10/12 06:50:06;;;;;;;8.18;3.90;;;;;;;17.38;100.00;98206.50;2572678;28;20675;-95
2023/10/12 06:51:23;;;;;;;6.30;3.30;;;;;;;17.56;100.00;98212.50;2573720;28;20046;-95
2023/10/12 06:52:38;;;;;;;7.47;3.60;;;;;;;17.64;100.00;98220.84;2572858;28;20077;-95
2023/10/12 06:54:06;;;;;;;10.65;3.47;;;;;;;17.74;100.00;98212.31;2578793;28;20054;-94
2023/10/12 06:55:28;;;;;;;9.07;3.28;;;;;;;17.83;100.00;98209.09;2578049;28;20057;-94
2023/10/12 06:56:49;;;;;;;9.27;3.53;;;;;;;17.97;100.00;98215.34;2573947;28;20083;-95
2023/10/12 06:58:14;;;;;;;8.13;3.40;;;;;;;17.84;100.00;98208.16;2573084;28;20042;-95
2023/10/12 06:59:35;;;;;;;9.45;3.45;;;;;;;17.73;100.00;98205.31;2582941;28;20467;-94